sensor_id;sensor_type;location;lat;lon;timestamp;temperature;humidity
32107;DHT22;18622;51.998;10.440;2022-11-15T03:16:24;13.70;97.20
32107;DHT22;18622;51.998;10.440;2022-11-15T03:19:04;13.70;97.20
32107;DHT22;18622;51.998;10.440;2022-11-15T03:21:30;13.80;97.20
32107;DHT22;18622;51.998;10.440;2022-11-15T03:24:02;13.90;97.10
32107;DHT22;18622;51.998;10.440;2022-11-15T03:26:30;13.90;96.90
32107;DHT22;18622;51.998;10.440;2022-11-15T03:29:06;13.90;96.90
32107;DHT22;18622;51.998;10.440;2022-11-15T03:31:33;14.00;96.70
32107;DHT22;18622;51.998;10.440;2022-11-15T03:34:42;14.10;96.60
32107;DHT22;18622;51.998;10.440;2022-11-15T03:37:07;14.10;96.40
32107;DHT22;18622;51.998;10.440;2022-11-15T03:39:36;14.20;96.30
32107;DHT22;18622;51.998;10.440;2022-11-15T03:42:27;14.20;96.10
32107;DHT22;18622;51.998;10.440;2022-11-15T03:48:10;14.20;96.00
32107;DHT22;18622;51.998;10.440;2022-11-15T03:50:24;14.10;95.90
32107;DHT22;18622;51.998;10.440;2022-11-15T03:52:54;14.10;95.90
32107;DHT22;18622;51.998;10.440;2022-11-15T03:55:22;14.00;95.80
32107;DHT22;18622;51.998;10.440;2022-11-15T03:57:53;14.00;95.80
32107;DHT22;18622;51.998;10.440;2022-11-15T04:31:01;13.80;96.00
32107;DHT22;18622;51.998;10.440;2022-11-15T04:33:29;13.90;95.90
32107;DHT22;18622;51.998;10.440;2022-11-15T04:35:57;13.90;95.70
32107;DHT22;18622;51.998;10.440;2022-11-15T04:38:42;13.90;95.50
32107;DHT22;18622;51.998;10.440;2022-11-15T04:41:10;14.00;95.40
32107;DHT22;18622;51.998;10.440;2022-11-15T04:43:38;14.10;95.30
32107;DHT22;18622;51.998;10.440;2022-11-15T04:46:06;14.10;95.30
32107;DHT22;18622;51.998;10.440;2022-11-15T04:48:33;14.10;95.10
32107;DHT22;18622;51.998;10.440;2022-11-15T04:51:01;14.10;95.10
32107;DHT22;18622;51.998;10.440;2022-11-15T04:53:29;14.00;95.10
32107;DHT22;18622;51.998;10.440;2022-11-15T04:55:57;14.00;95.10
32107;DHT22;18622;51.998;10.440;2022-11-15T04:58:25;13.90;95.10
32107;DHT22;18622;51.998;10.440;2022-11-15T05:00:52;13.90;95.20
32107;DHT22;18622;51.998;10.440;2022-11-15T05:03:20;13.80;95.30
32107;DHT22;18622;51.998;10.440;2022-11-15T05:06:06;13.70;95.50
32107;DHT22;18622;51.998;10.440;2022-11-15T05:08:34;13.70;95.70
32107;DHT22;18622;51.998;10.440;2022-11-15T05:11:02;13.60;95.80
32107;DHT22;18622;51.998;10.440;2022-11-15T05:13:29;13.60;96.00
32107;DHT22;18622;51.998;10.440;2022-11-15T05:15:58;13.60;96.10
32107;DHT22;18622;51.998;10.440;2022-11-15T05:18:26;13.50;96.00
32107;DHT22;18622;51.998;10.440;2022-11-15T05:20:53;13.40;96.10
32107;DHT22;18622;51.998;10.440;2022-11-15T05:23:21;13.30;96.30
32107;DHT22;18622;51.998;10.440;2022-11-15T05:25:49;13.20;96.50
32107;DHT22;18622;51.998;10.440;2022-11-15T05:28:17;13.20;96.60
32107;DHT22;18622;51.998;10.440;2022-11-15T05:30:44;13.10;96.70
32107;DHT22;18622;51.998;10.440;2022-11-15T05:33:12;13.10;96.80
32107;DHT22;18622;51.998;10.440;2022-11-15T05:35:42;13.10;96.70
32107;DHT22;18622;51.998;10.440;2022-11-15T05:38:11;12.90;96.60
32107;DHT22;18622;51.998;10.440;2022-11-15T05:40:38;12.70;96.30
32107;DHT22;18622;51.998;10.440;2022-11-15T05:43:06;12.50;96.20
32107;DHT22;18622;51.998;10.440;2022-11-15T05:45:35;12.20;96.30
32107;DHT22;18622;51.998;10.440;2022-11-15T05:50:43;11.70;96.90
32107;DHT22;18622;51.998;10.440;2022-11-15T05:53:14;11.40;97.10
32107;DHT22;18622;51.998;10.440;2022-11-15T05:55:42;11.30;97.50
32107;DHT22;18622;51.998;10.440;2022-11-15T05:58:10;11.10;97.70
32107;DHT22;18622;51.998;10.440;2022-11-15T06:00:38;10.90;98.00
32107;DHT22;18622;51.998;10.440;2022-11-15T06:03:06;10.80;98.10
32107;DHT22;18622;51.998;10.440;2022-11-15T06:05:34;10.70;98.30
32107;DHT22;18622;51.998;10.440;2022-11-15T06:08:06;10.60;98.40
32107;DHT22;18622;51.998;10.440;2022-11-15T06:10:33;10.50;98.70
32107;DHT22;18622;51.998;10.440;2022-11-15T06:13:03;10.40;98.90
32107;DHT22;18622;51.998;10.440;2022-11-15T06:15:32;10.30;99.10
32107;DHT22;18622;51.998;10.440;2022-11-15T06:18:01;10.20;99.20
32107;DHT22;18622;51.998;10.440;2022-11-15T06:20:30;10.20;99.30
32107;DHT22;18622;51.998;10.440;2022-11-15T06:23:03;10.10;99.50
32107;DHT22;18622;51.998;10.440;2022-11-15T06:25:31;10.00;99.70
32107;DHT22;18622;51.998;10.440;2022-11-15T06:27:59;9.90;99.90
32107;DHT22;18622;51.998;10.440;2022-11-15T10:04:27;22.70;68.40
32107;DHT22;18622;51.998;10.440;2022-11-15T10:09:45;22.80;65.10
32107;DHT22;18622;51.998;10.440;2022-11-15T10:12:10;22.80;65.00
32107;DHT22;18622;51.998;10.440;2022-11-15T10:14:39;22.80;64.40
32107;DHT22;18622;51.998;10.440;2022-11-15T10:20:20;23.80;61.80
32107;DHT22;18622;51.998;10.440;2022-11-15T10:22:51;24.20;61.20
32107;DHT22;18622;51.998;10.440;2022-11-15T10:25:24;24.60;58.40
32107;DHT22;18622;51.998;10.440;2022-11-15T10:28:19;24.90;57.50
32107;DHT22;18622;51.998;10.440;2022-11-15T10:30:48;25.10;56.20
32107;DHT22;18622;51.998;10.440;2022-11-15T10:33:29;25.20;56.60
32107;DHT22;18622;51.998;10.440;2022-11-15T10:47:03;25.80;52.50
32107;DHT22;18622;51.998;10.440;2022-11-15T10:49:25;25.90;52.90
32107;DHT22;18622;51.998;10.440;2022-11-15T10:51:58;26.00;51.90
32107;DHT22;18622;51.998;10.440;2022-11-15T10:54:37;26.10;51.80
32107;DHT22;18622;51.998;10.440;2022-11-15T10:57:06;26.10;51.50
32107;DHT22;18622;51.998;10.440;2022-11-15T10:59:36;25.90;51.30
32107;DHT22;18622;51.998;10.440;2022-11-15T11:02:35;25.20;51.70
32107;DHT22;18622;51.998;10.440;2022-11-15T11:05:05;24.20;53.20
32107;DHT22;18622;51.998;10.440;2022-11-15T11:07:34;23.20;55.40
32107;DHT22;18622;51.998;10.440;2022-11-15T11:12:42;22.30;57.90
32107;DHT22;18622;51.998;10.440;2022-11-15T11:15:12;22.00;58.90
32107;DHT22;18622;51.998;10.440;2022-11-15T11:18:05;21.70;59.30
32107;DHT22;18622;51.998;10.440;2022-11-15T11:20:44;21.50;59.70
32107;DHT22;18622;51.998;10.440;2022-11-15T11:23:42;21.20;60.30
32107;DHT22;18622;51.998;10.440;2022-11-15T11:29:24;20.70;62.10
32107;DHT22;18622;51.998;10.440;2022-11-15T11:31:57;20.50;62.40
32107;DHT22;18622;51.998;10.440;2022-11-15T11:34:50;20.30;62.70
32107;DHT22;18622;51.998;10.440;2022-11-15T11:43:02;20.30;64.00
32107;DHT22;18622;51.998;10.440;2022-11-15T11:48:13;21.20;62.50
32107;DHT22;18622;51.998;10.440;2022-11-15T11:50:44;21.60;61.60
32107;DHT22;18622;51.998;10.440;2022-11-15T11:53:27;21.70;61.70
32107;DHT22;18622;51.998;10.440;2022-11-15T11:56:02;21.60;61.50
32107;DHT22;18622;51.998;10.440;2022-11-15T11:58:32;21.50;61.80
32107;DHT22;18622;51.998;10.440;2022-11-15T16:05:03;14.30;91.50
32107;DHT22;18622;51.998;10.440;2022-11-15T16:07:31;14.20;91.60
32107;DHT22;18622;51.998;10.440;2022-11-15T16:09:59;14.20;91.90
32107;DHT22;18622;51.998;10.440;2022-11-15T16:12:34;14.20;92.40
32107;DHT22;18622;51.998;10.440;2022-11-15T16:15:02;14.20;92.30
32107;DHT22;18622;51.998;10.440;2022-11-15T16:17:32;14.20;92.40
32107;DHT22;18622;51.998;10.440;2022-11-15T16:20:01;14.20;92.50
32107;DHT22;18622;51.998;10.440;2022-11-15T16:22:29;14.10;92.50
32107;DHT22;18622;51.998;10.440;2022-11-15T16:24:57;14.10;92.70
32107;DHT22;18622;51.998;10.440;2022-11-15T16:27:25;14.20;93.00
32107;DHT22;18622;51.998;10.440;2022-11-15T16:29:53;14.10;92.80
32107;DHT22;18622;51.998;10.440;2022-11-15T16:32:20;14.10;92.80
32107;DHT22;18622;51.998;10.440;2022-11-15T16:34:49;14.00;92.70
32107;DHT22;18622;51.998;10.440;2022-11-15T16:37:23;14.00;92.80
32107;DHT22;18622;51.998;10.440;2022-11-15T16:39:51;13.90;92.90
32107;DHT22;18622;51.998;10.440;2022-11-15T16:42:19;13.90;93.10
32107;DHT22;18622;51.998;10.440;2022-11-15T16:44:47;13.80;93.00
32107;DHT22;18622;51.998;10.440;2022-11-15T16:47:18;13.80;93.30
32107;DHT22;18622;51.998;10.440;2022-11-15T16:49:47;13.70;93.50
32107;DHT22;18622;51.998;10.440;2022-11-15T16:52:15;13.70;93.70
32107;DHT22;18622;51.998;10.440;2022-11-15T16:54:42;13.60;93.70
32107;DHT22;18622;51.998;10.440;2022-11-15T16:57:10;13.50;93.60
32107;DHT22;18622;51.998;10.440;2022-11-15T16:59:38;13.50;93.80
32107;DHT22;18622;51.998;10.440;2022-11-15T17:02:13;13.40;94.00
32107;DHT22;18622;51.998;10.440;2022-11-15T17:04:37;13.40;94.10
32107;DHT22;18622;51.998;10.440;2022-11-15T17:07:05;13.30;94.20
32107;DHT22;18622;51.998;10.440;2022-11-15T17:09:32;13.30;94.30
32107;DHT22;18622;51.998;10.440;2022-11-15T17:12:00;13.20;94.40
32107;DHT22;18622;51.998;10.440;2022-11-15T17:14:28;13.10;94.50
32107;DHT22;18622;51.998;10.440;2022-11-15T17:16:56;13.10;94.50
32107;DHT22;18622;51.998;10.440;2022-11-15T17:19:24;13.00;94.50
32107;DHT22;18622;51.998;10.440;2022-11-15T17:21:52;12.90;94.50
32107;DHT22;18622;51.998;10.440;2022-11-15T17:24:19;12.90;94.80
32107;DHT22;18622;51.998;10.440;2022-11-15T17:26:47;12.90;95.10
32107;DHT22;18622;51.998;10.440;2022-11-15T17:29:15;12.80;95.00
32107;DHT22;18622;51.998;10.440;2022-11-15T17:31:44;12.80;95.00
32107;DHT22;18622;51.998;10.440;2022-11-15T17:34:11;12.80;95.10
32107;DHT22;18622;51.998;10.440;2022-11-15T17:36:39;12.80;95.20
32107;DHT22;18622;51.998;10.440;2022-11-15T17:39:07;12.70;95.20
32107;DHT22;18622;51.998;10.440;2022-11-15T17:41:35;12.70;95.30
32107;DHT22;18622;51.998;10.440;2022-11-15T17:44:03;12.70;95.40
32107;DHT22;18622;51.998;10.440;2022-11-15T17:46:31;12.70;95.50
32107;DHT22;18622;51.998;10.440;2022-11-15T17:48:59;12.70;95.50
32107;DHT22;18622;51.998;10.440;2022-11-15T17:51:27;12.70;95.70
32107;DHT22;18622;51.998;10.440;2022-11-15T17:53:55;12.70;95.80
32107;DHT22;18622;51.998;10.440;2022-11-15T17:56:24;12.70;95.70
32107;DHT22;18622;51.998;10.440;2022-11-15T17:58:54;12.60;95.80
32107;DHT22;18622;51.998;10.440;2022-11-15T18:01:25;12.60;95.90
32107;DHT22;18622;51.998;10.440;2022-11-15T18:03:52;12.60;96.00
32107;DHT22;18622;51.998;10.440;2022-11-15T18:06:21;12.70;96.10
32107;DHT22;18622;51.998;10.440;2022-11-15T18:08:51;12.70;96.10
32107;DHT22;18622;51.998;10.440;2022-11-15T18:11:22;12.70;96.20
32107;DHT22;18622;51.998;10.440;2022-11-15T18:13:55;12.70;96.20
32107;DHT22;18622;51.998;10.440;2022-11-15T18:16:25;12.70;96.20
32107;DHT22;18622;51.998;10.440;2022-11-15T18:18:53;12.70;96.20
32107;DHT22;18622;51.998;10.440;2022-11-15T18:21:24;12.70;96.20
32107;DHT22;18622;51.998;10.440;2022-11-15T18:23:53;12.80;96.30
32107;DHT22;18622;51.998;10.440;2022-11-15T18:26:22;12.80;96.30
32107;DHT22;18622;51.998;10.440;2022-11-15T18:28:53;12.80;96.30
32107;DHT22;18622;51.998;10.440;2022-11-15T18:31:25;12.80;96.20
32107;DHT22;18622;51.998;10.440;2022-11-15T18:33:54;12.80;96.10
32107;DHT22;18622;51.998;10.440;2022-11-15T18:36:24;12.90;96.10
32107;DHT22;18622;51.998;10.440;2022-11-15T18:38:56;12.90;96.00
32107;DHT22;18622;51.998;10.440;2022-11-15T18:41:25;13.00;95.90
32107;DHT22;18622;51.998;10.440;2022-11-15T18:43:58;13.00;95.80
32107;DHT22;18622;51.998;10.440;2022-11-15T18:46:29;13.00;95.80
32107;DHT22;18622;51.998;10.440;2022-11-15T18:48:58;13.10;95.50
32107;DHT22;18622;51.998;10.440;2022-11-15T18:51:28;13.10;95.50
32107;DHT22;18622;51.998;10.440;2022-11-15T18:53:59;13.10;95.40
32107;DHT22;18622;51.998;10.440;2022-11-15T18:56:28;13.20;95.40
32107;DHT22;18622;51.998;10.440;2022-11-15T18:58:58;13.20;95.40
32107;DHT22;18622;51.998;10.440;2022-11-15T19:01:26;13.20;95.30
32107;DHT22;18622;51.998;10.440;2022-11-15T19:03:56;13.20;95.10
32107;DHT22;18622;51.998;10.440;2022-11-15T19:06:26;13.20;95.00
32107;DHT22;18622;51.998;10.440;2022-11-15T19:08:58;13.20;95.00
32107;DHT22;18622;51.998;10.440;2022-11-15T19:11:29;13.30;95.00
32107;DHT22;18622;51.998;10.440;2022-11-15T19:13:59;13.30;95.00
32107;DHT22;18622;51.998;10.440;2022-11-15T19:16:30;13.20;94.90
32107;DHT22;18622;51.998;10.440;2022-11-15T19:18:59;13.30;95.00
32107;DHT22;18622;51.998;10.440;2022-11-15T19:21:27;13.30;95.00
32107;DHT22;18622;51.998;10.440;2022-11-15T19:23:57;13.20;95.10
32107;DHT22;18622;51.998;10.440;2022-11-15T19:26:26;13.20;95.00
32107;DHT22;18622;51.998;10.440;2022-11-15T19:29:00;13.20;95.00
32107;DHT22;18622;51.998;10.440;2022-11-15T19:31:26;13.20;95.00
32107;DHT22;18622;51.998;10.440;2022-11-15T19:33:56;13.20;95.10
32107;DHT22;18622;51.998;10.440;2022-11-15T19:36:27;13.20;95.10
32107;DHT22;18622;51.998;10.440;2022-11-15T19:38:57;13.10;95.20
32107;DHT22;18622;51.998;10.440;2022-11-15T19:41:25;13.10;95.10
32107;DHT22;18622;51.998;10.440;2022-11-15T19:43:53;13.10;95.10
32107;DHT22;18622;51.998;10.440;2022-11-15T19:46:21;13.10;95.20
32107;DHT22;18622;51.998;10.440;2022-11-15T19:48:50;13.10;95.10
32107;DHT22;18622;51.998;10.440;2022-11-15T19:51:23;13.10;95.10
32107;DHT22;18622;51.998;10.440;2022-11-15T19:53:56;13.10;95.00
32107;DHT22;18622;51.998;10.440;2022-11-15T19:56:24;13.00;95.00
32107;DHT22;18622;51.998;10.440;2022-11-15T19:58:54;13.00;95.00
32107;DHT22;18622;51.998;10.440;2022-11-15T20:01:23;13.00;95.00
32107;DHT22;18622;51.998;10.440;2022-11-15T20:03:52;13.00;94.90
32107;DHT22;18622;51.998;10.440;2022-11-15T20:06:29;12.90;94.90
32107;DHT22;18622;51.998;10.440;2022-11-15T20:08:55;12.90;95.00
32107;DHT22;18622;51.998;10.440;2022-11-15T20:11:23;13.00;95.00
32107;DHT22;18622;51.998;10.440;2022-11-15T20:13:54;13.00;95.00
32107;DHT22;18622;51.998;10.440;2022-11-15T20:16:21;12.90;94.90
32107;DHT22;18622;51.998;10.440;2022-11-15T20:18:49;13.00;94.90
32107;DHT22;18622;51.998;10.440;2022-11-15T20:21:18;13.00;94.80
32107;DHT22;18622;51.998;10.440;2022-11-15T20:23:47;13.00;94.70
32107;DHT22;18622;51.998;10.440;2022-11-15T20:26:16;13.00;94.70
32107;DHT22;18622;51.998;10.440;2022-11-15T20:28:44;13.00;94.70
32107;DHT22;18622;51.998;10.440;2022-11-15T20:31:12;12.90;94.70
32107;DHT22;18622;51.998;10.440;2022-11-15T20:33:39;12.90;94.70
32107;DHT22;18622;51.998;10.440;2022-11-15T20:36:10;12.90;94.70
32107;DHT22;18622;51.998;10.440;2022-11-15T20:38:38;12.90;94.60
32107;DHT22;18622;51.998;10.440;2022-11-15T20:41:06;12.90;94.60
32107;DHT22;18622;51.998;10.440;2022-11-15T20:43:34;12.90;94.70
32107;DHT22;18622;51.998;10.440;2022-11-15T20:46:02;12.90;94.60
32107;DHT22;18622;51.998;10.440;2022-11-15T20:48:29;12.80;94.60
32107;DHT22;18622;51.998;10.440;2022-11-15T20:51:12;12.90;94.60
32107;DHT22;18622;51.998;10.440;2022-11-15T20:53:42;12.80;94.60
32107;DHT22;18622;51.998;10.440;2022-11-15T20:56:13;12.80;94.60
32107;DHT22;18622;51.998;10.440;2022-11-15T20:58:41;12.80;94.70
32107;DHT22;18622;51.998;10.440;2022-11-15T21:01:13;12.80;94.60
32107;DHT22;18622;51.998;10.440;2022-11-15T21:03:41;12.80;94.70
32107;DHT22;18622;51.998;10.440;2022-11-15T21:06:10;12.70;94.60
32107;DHT22;18622;51.998;10.440;2022-11-15T21:08:38;12.70;94.90
32107;DHT22;18622;51.998;10.440;2022-11-15T21:11:24;12.70;94.80
32107;DHT22;18622;51.998;10.440;2022-11-15T21:14:10;12.70;94.80
32107;DHT22;18622;51.998;10.440;2022-11-15T21:16:38;12.70;94.90
32107;DHT22;18622;51.998;10.440;2022-11-15T21:19:06;12.60;94.80
32107;DHT22;18622;51.998;10.440;2022-11-15T21:21:35;12.50;94.80
32107;DHT22;18622;51.998;10.440;2022-11-15T21:24:03;12.50;94.90
32107;DHT22;18622;51.998;10.440;2022-11-15T21:26:32;12.50;95.10
32107;DHT22;18622;51.998;10.440;2022-11-15T21:28:59;12.50;95.10
32107;DHT22;18622;51.998;10.440;2022-11-15T21:31:27;12.40;95.10
32107;DHT22;18622;51.998;10.440;2022-11-15T21:33:55;12.40;95.20
32107;DHT22;18622;51.998;10.440;2022-11-15T21:36:23;12.40;95.30
32107;DHT22;18622;51.998;10.440;2022-11-15T21:38:51;12.30;95.30
32107;DHT22;18622;51.998;10.440;2022-11-15T21:41:19;12.30;95.40
32107;DHT22;18622;51.998;10.440;2022-11-15T21:43:47;12.30;95.40
32107;DHT22;18622;51.998;10.440;2022-11-15T21:46:15;12.30;95.50
32107;DHT22;18622;51.998;10.440;2022-11-15T21:48:43;12.20;95.40
32107;DHT22;18622;51.998;10.440;2022-11-15T21:51:11;12.20;95.50
32107;DHT22;18622;51.998;10.440;2022-11-15T21:53:39;12.20;95.60
32107;DHT22;18622;51.998;10.440;2022-11-15T21:56:07;12.10;95.60
32107;DHT22;18622;51.998;10.440;2022-11-15T21:58:37;12.10;95.70
